Time;durP1;ratioP1;P1;durP2;ratioP2;P2;SDS_P1;SDS_P2;PMS_P1;PMS_P2;Temp;Humidity;BMP_temperature;BMP_pressure;BME280_temperature;BME280_humidity;BME280_pressure;Samples;Min_cycle;Max_cycle;Signal;HPM_P1;HPM_P2
2022/08/19 00:00:30;;;;;;;10.55;9.75;;;25.20;99.90;;;;;;5049008;28;20754;-70
2022/08/19 00:02:57;;;;;;;9.85;9.15;;;25.10;99.90;;;;;;5049477;28;20207;-70
2022/08/19 00:05:24;;;;;;;10.80;9.82;;;25.10;99.90;;;;;;5049724;28;20295;-72
2022/08/19 00:07:51;;;;;;;10.20;9.40;;;25.20;99.90;;;;;;5049557;28;20208;-72
2022/08/19 00:10:20;;;;;;;9.52;8.85;;;25.20;99.90;;;;;;5049437;28;20210;-72
2022/08/19 00:12:47;;;;;;;9.80;9.05;;;25.20;99.90;;;;;;5049209;28;20207;-72
2022/08/19 00:15:16;;;;;;;10.20;9.38;;;25.20;99.90;;;;;;5048754;28;20653;-72
2022/08/19 00:17:45;;;;;;;10.02;9.32;;;25.10;99.90;;;;;;5049263;28;20205;-72
2022/08/19 00:20:16;;;;;;;9.32;8.73;;;25.10;99.90;;;;;;5048978;28;20764;-72
2022/08/19 00:22:43;;;;;;;9.45;8.73;;;25.10;99.90;;;;;;5049226;28;20196;-72
2022/08/19 00:25:11;;;;;;;9.77;9.05;;;25.10;99.90;;;;;;5049109;28;20219;-72
2022/08/19 00:27:38;;;;;;;9.88;9.07;;;25.10;99.90;;;;;;5049263;28;20218;-72
2022/08/19 00:30:06;;;;;;;9.40;8.70;;;25.10;99.90;;;;;;5049143;28;20600;-73
2022/08/19 00:32:34;;;;;;;9.52;8.93;;;25.10;99.90;;;;;;5048409;28;20205;-72
2022/08/19 00:35:02;;;;;;;10.52;9.82;;;25.10;99.90;;;;;;5049053;28;20200;-72
2022/08/19 00:37:30;;;;;;;9.50;8.90;;;25.00;99.90;;;;;;5048410;28;20581;-72
2022/08/19 00:39:57;;;;;;;10.45;9.73;;;25.00;99.90;;;;;;5048382;28;20249;-72
2022/08/19 00:42:28;;;;;;;9.68;8.82;;;25.00;99.90;;;;;;5048013;28;20705;-72
2022/08/19 00:44:55;;;;;;;9.50;8.80;;;25.00;99.90;;;;;;5048997;28;20686;-72
2022/08/19 00:47:21;;;;;;;10.13;9.30;;;24.90;99.90;;;;;;5048461;28;20204;-72
2022/08/19 00:49:51;;;;;;;9.45;8.73;;;24.90;99.90;;;;;;5048811;28;20222;-72
2022/08/19 00:52:23;;;;;;;10.10;9.20;;;24.70;99.90;;;;;;5048663;28;20222;-72
2022/08/19 00:54:51;;;;;;;9.88;9.27;;;24.70;99.90;;;;;;5048849;28;20661;-72
2022/08/19 00:57:23;;;;;;;9.50;8.82;;;24.60;99.90;;;;;;5048461;28;20211;-71
2022/08/19 00:59:54;;;;;;;10.02;9.23;;;24.60;99.90;;;;;;5048405;28;20220;-72
2022/08/19 01:02:21;;;;;;;9.25;8.45;;;24.60;99.90;;;;;;5048251;28;20204;-72
2022/08/19 01:04:47;;;;;;;8.43;7.93;;;24.70;99.90;;;;;;5048177;28;20204;-71
2022/08/19 01:07:14;;;;;;;9.30;8.52;;;24.70;99.90;;;;;;5048516;28;20200;-70
2022/08/19 01:09:43;;;;;;;9.82;9.10;;;24.80;99.90;;;;;;5048385;28;20216;-71
2022/08/19 01:12:10;;;;;;;9.18;8.48;;;24.80;99.90;;;;;;5048754;28;20204;-70
2022/08/19 01:14:39;;;;;;;10.70;9.02;;;24.80;99.90;;;;;;5058012;28;20207;-70
2022/08/19 01:17:08;;;;;;;9.75;9.00;;;24.80;99.90;;;;;;5049239;28;20200;-71
2022/08/19 01:19:38;;;;;;;9.90;9.20;;;24.80;99.90;;;;;;5047943;28;20204;-72
2022/08/19 01:22:09;;;;;;;10.13;9.23;;;24.80;99.90;;;;;;5048234;28;20730;-71
2022/08/19 01:24:38;;;;;;;9.90;8.95;;;24.80;99.90;;;;;;5047839;28;20736;-72
2022/08/19 01:27:05;;;;;;;9.18;8.48;;;24.80;99.90;;;;;;5048051;28;20287;-72
2022/08/19 01:29:32;;;;;;;9.70;9.00;;;24.80;99.90;;;;;;5047800;28;20769;-72
2022/08/19 01:31:59;;;;;;;10.13;9.43;;;24.80;99.90;;;;;;5048025;28;20208;-71
2022/08/19 01:34:26;;;;;;;9.60;8.80;;;24.80;99.90;;;;;;5047845;28;20281;-71
2022/08/19 01:36:53;;;;;;;10.10;9.20;;;24.80;99.90;;;;;;5047392;28;20298;-71
2022/08/19 01:39:22;;;;;;;9.63;8.93;;;24.80;99.90;;;;;;5047373;28;20258;-72
2022/08/19 01:41:52;;;;;;;9.30;8.60;;;24.80;99.90;;;;;;5047384;28;20248;-71
2022/08/19 01:44:20;;;;;;;9.15;8.48;;;24.80;99.90;;;;;;5029336;28;20205;-73
2022/08/19 01:46:48;;;;;;;8.93;8.23;;;24.80;99.90;;;;;;5027774;28;20209;-72
2022/08/19 01:49:16;;;;;;;9.70;8.73;;;24.80;99.90;;;;;;5046093;28;20200;-72
2022/08/19 01:51:43;;;;;;;9.75;8.82;;;24.80;99.90;;;;;;5047551;28;20208;-72
2022/08/19 01:54:11;;;;;;;9.32;8.63;;;24.70;99.90;;;;;;5047714;28;20230;-71
2022/08/19 01:56:38;;;;;;;9.45;8.77;;;24.60;99.90;;;;;;5047496;28;20211;-72
2022/08/19 01:59:11;;;;;;;10.15;9.18;;;24.60;99.90;;;;;;5047787;28;20207;-71
2022/08/19 02:01:38;;;;;;;9.73;8.55;;;24.60;99.90;;;;;;5047473;28;20219;-71
2022/08/19 02:04:05;;;;;;;9.18;8.48;;;24.60;99.90;;;;;;5047714;28;20291;-71
2022/08/19 02:06:32;;;;;;;9.43;8.63;;;24.60;99.90;;;;;;5047188;28;20688;-71
2022/08/19 02:09:00;;;;;;;10.05;9.18;;;24.60;99.90;;;;;;5047618;28;20215;-71
2022/08/19 02:11:31;;;;;;;9.98;9.20;;;24.60;99.90;;;;;;5047358;28;20208;-71
2022/08/19 02:13:59;;;;;;;11.07;10.05;;;24.60;99.90;;;;;;5047644;28;20211;-71
2022/08/19 02:16:27;;;;;;;10.30;9.30;;;24.60;99.90;;;;;;5047193;28;20653;-74
2022/08/19 02:18:54;;;;;;;10.13;9.32;;;24.60;99.90;;;;;;5047560;28;20210;-76
2022/08/19 02:21:23;;;;;;;11.02;10.13;;;24.50;99.90;;;;;;5047430;28;20236;-75
2022/08/19 02:23:50;;;;;;;11.10;10.15;;;24.50;99.90;;;;;;5047472;28;20204;-75
2022/08/19 02:26:18;;;;;;;11.43;10.50;;;24.40;99.90;;;;;;5047108;28;20677;-76
2022/08/19 02:28:45;;;;;;;12.27;11.13;;;24.40;99.90;;;;;;5046988;28;20878;-75
2022/08/19 02:31:14;;;;;;;11.80;10.80;;;24.40;99.90;;;;;;5047095;28;20212;-75
2022/08/19 02:33:42;;;;;;;12.38;11.27;;;24.40;99.90;;;;;;5047703;28;20212;-75
2022/08/19 02:36:12;;;;;;;11.93;10.93;;;24.30;99.90;;;;;;5047155;28;20295;-73
2022/08/19 02:38:39;;;;;;;12.52;11.40;;;24.30;99.90;;;;;;5046899;28;20207;-73
2022/08/19 02:41:12;;;;;;;12.43;11.35;;;24.30;99.90;;;;;;5046573;28;20609;-73
2022/08/19 02:43:40;;;;;;;13.80;12.60;;;24.20;99.90;;;;;;5046976;28;20207;-73
2022/08/19 02:46:13;;;;;;;11.73;10.70;;;24.20;99.90;;;;;;5047230;28;20281;-73
2022/08/19 02:48:41;;;;;;;11.82;10.82;;;24.10;99.90;;;;;;5047060;28;20531;-73
2022/08/19 02:51:08;;;;;;;13.00;10.80;;;24.10;99.90;;;;;;5050854;28;20658;-72
2022/08/19 02:53:35;;;;;;;12.75;11.43;;;24.20;99.90;;;;;;5050590;28;20748;-72
2022/08/19 02:56:02;;;;;;;11.98;10.95;;;24.10;99.90;;;;;;5050571;28;20667;-73
2022/08/19 02:58:32;;;;;;;11.15;10.35;;;24.10;99.90;;;;;;5050887;28;20203;-73
2022/08/19 03:00:59;;;;;;;12.02;10.80;;;24.10;99.90;;;;;;5050482;28;20234;-74
2022/08/19 03:03:26;;;;;;;11.73;10.73;;;24.10;99.90;;;;;;5050348;28;20688;-73
2022/08/19 03:06:10;;;;;;;11.95;11.05;;;24.10;99.90;;;;;;5050208;28;20204;-72
2022/08/19 03:08:39;;;;;;;11.30;10.27;;;24.10;99.90;;;;;;5030883;28;20228;-70
2022/08/19 03:11:06;;;;;;;11.93;10.82;;;24.10;99.90;;;;;;5031013;28;20227;-70
2022/08/19 03:13:33;;;;;;;10.43;9.50;;;24.10;99.90;;;;;;5037577;28;20235;-70
2022/08/19 03:16:00;;;;;;;11.45;10.65;;;24.20;99.90;;;;;;5028540;28;20208;-70
2022/08/19 03:18:27;;;;;;;10.93;10.13;;;24.20;99.90;;;;;;5037489;28;20196;-70
2022/08/19 03:20:55;;;;;;;11.43;10.27;;;24.20;99.90;;;;;;5048714;28;20228;-70
2022/08/19 03:23:24;;;;;;;11.48;10.48;;;24.30;99.90;;;;;;5048625;28;20605;-69
2022/08/19 03:25:53;;;;;;;10.40;9.60;;;24.30;99.90;;;;;;5048128;28;20204;-70
2022/08/19 03:28:21;;;;;;;10.73;9.98;;;24.30;99.90;;;;;;5048015;28;20200;-70
2022/08/19 03:30:57;;;;;;;11.10;10.20;;;24.30;99.90;;;;;;5048004;28;20295;-70
2022/08/19 03:33:26;;;;;;;11.18;10.35;;;24.30;99.90;;;;;;5048247;28;20196;-70
2022/08/19 03:36:12;;;;;;;11.50;10.38;;;24.40;99.90;;;;;;5048732;28;20303;-69
2022/08/19 03:38:43;;;;;;;12.50;11.32;;;24.30;99.90;;;;;;5048133;28;20194;-70
2022/08/19 03:41:12;;;;;;;10.75;9.80;;;24.30;99.90;;;;;;5048041;28;20244;-70
2022/08/19 03:43:40;;;;;;;11.25;10.20;;;24.30;99.90;;;;;;5047207;28;20204;-69
2022/08/19 03:46:13;;;;;;;11.25;10.25;;;24.30;99.90;;;;;;5047393;28;20208;-70
2022/08/19 03:48:42;;;;;;;10.20;9.50;;;24.30;99.90;;;;;;5047737;28;20983;-70
2022/08/19 03:51:17;;;;;;;11.23;10.13;;;24.30;99.90;;;;;;5047321;28;20212;-70
2022/08/19 03:53:44;;;;;;;11.73;10.82;;;24.30;99.90;;;;;;5047742;28;20196;-70
2022/08/19 03:56:12;;;;;;;11.43;10.52;;;24.30;99.90;;;;;;5047452;28;20261;-70
2022/08/19 03:58:39;;;;;;;10.68;9.70;;;24.30;99.90;;;;;;5046854;28;20270;-69
2022/08/19 04:01:09;;;;;;;10.80;9.95;;;24.30;99.90;;;;;;5046624;28;20263;-69
2022/08/19 04:03:36;;;;;;;11.05;10.18;;;24.30;99.90;;;;;;5049423;28;20654;-69
2022/08/19 04:06:15;;;;;;;11.45;10.55;;;24.30;99.90;;;;;;5049467;28;20257;-69
2022/08/19 04:08:43;;;;;;;10.18;9.40;;;24.30;99.90;;;;;;5048912;28;20210;-69
2022/08/19 04:11:12;;;;;;;10.23;9.38;;;24.30;99.90;;;;;;5049630;28;20218;-69
2022/08/19 04:13:40;;;;;;;11.10;10.25;;;24.30;99.90;;;;;;5049247;28;20241;-70
2022/08/19 04:16:07;;;;;;;10.88;9.95;;;24.20;99.90;;;;;;5049400;28;20208;-71
2022/08/19 04:18:35;;;;;;;10.57;9.70;;;24.20;99.90;;;;;;5048963;28;20588;-69
2022/08/19 04:21:04;;;;;;;9.98;9.18;;;24.10;99.90;;;;;;5049112;28;20232;-69
2022/08/19 04:23:33;;;;;;;9.75;8.85;;;24.10;99.90;;;;;;5048987;28;20473;-69
2022/08/19 04:26:00;;;;;;;10.43;9.52;;;24.00;99.90;;;;;;5048829;28;20236;-69
2022/08/19 04:28:27;;;;;;;9.68;8.88;;;24.00;99.90;;;;;;5047398;28;20208;-69
2022/08/19 04:30:55;;;;;;;10.50;9.70;;;24.00;99.90;;;;;;5047410;28;20204;-69
2022/08/19 04:33:25;;;;;;;9.80;9.18;;;24.00;99.90;;;;;;5036962;28;20662;-69
2022/08/19 04:35:53;;;;;;;9.52;8.82;;;24.00;99.90;;;;;;5041695;28;20236;-69
2022/08/19 04:38:22;;;;;;;10.00;9.23;;;24.00;99.90;;;;;;5047473;28;20689;-69
2022/08/19 04:43:39;;;;;;;10.77;9.70;;;24.00;99.90;;;;;;5045579;28;20401;-69
2022/08/19 04:46:08;;;;;;;10.57;9.68;;;24.00;99.90;;;;;;5047082;28;20208;-69
2022/08/19 04:48:36;;;;;;;11.27;10.27;;;24.00;99.90;;;;;;5047745;28;20310;-69
2022/08/19 04:51:08;;;;;;;10.05;9.25;;;24.00;99.90;;;;;;5047694;28;20218;-69
2022/08/19 04:53:37;;;;;;;10.52;9.65;;;24.00;99.90;;;;;;5045324;28;20278;-69
2022/08/19 04:56:10;;;;;;;10.68;9.60;;;24.00;99.90;;;;;;5048207;28;20299;-69
2022/08/19 04:58:39;;;;;;;9.50;8.57;;;24.10;99.90;;;;;;5044727;28;20193;-69
2022/08/19 05:01:06;;;;;;;10.20;9.25;;;24.00;99.90;;;;;;5047530;28;20238;-69
2022/08/19 05:03:34;;;;;;;9.70;8.80;;;24.00;99.90;;;;;;5047045;28;20208;-69
2022/08/19 05:06:07;;;;;;;9.95;9.25;;;24.00;99.90;;;;;;5047663;28;20204;-69
2022/08/19 05:08:35;;;;;;;10.35;9.55;;;24.00;99.90;;;;;;5047523;28;20219;-69
2022/08/19 05:11:04;;;;;;;9.80;9.05;;;24.00;99.90;;;;;;5047386;28;20215;-68
2022/08/19 05:13:32;;;;;;;10.32;9.50;;;23.90;99.90;;;;;;5046363;28;20208;-69
2022/08/19 05:16:00;;;;;;;10.38;9.63;;;23.90;99.90;;;;;;5046798;28;20196;-70
2022/08/19 05:23:58;;;;;;;11.23;10.25;;;23.90;99.90;;;;;;5044905;28;20611;-69
2022/08/19 05:26:26;;;;;;;11.27;10.48;;;23.90;99.90;;;;;;5047250;28;20207;-69
2022/08/19 05:28:54;;;;;;;11.48;10.32;;;23.90;99.90;;;;;;5045277;28;20208;-68
2022/08/19 05:31:22;;;;;;;11.35;10.45;;;23.90;99.90;;;;;;5046480;28;20226;-68
2022/08/19 05:33:50;;;;;;;11.73;10.63;;;23.90;99.90;;;;;;5046376;28;20201;-68
2022/08/19 05:36:19;;;;;;;12.10;10.95;;;24.00;99.90;;;;;;5046558;28;20780;-68
2022/08/19 05:38:47;;;;;;;11.45;10.45;;;24.00;99.90;;;;;;5046220;28;20200;-68
2022/08/19 05:41:16;;;;;;;11.52;10.63;;;24.00;99.90;;;;;;5043921;28;20227;-68
2022/08/19 05:43:43;;;;;;;12.02;10.70;;;24.00;99.90;;;;;;5046420;28;20674;-68
2022/08/19 05:46:17;;;;;;;11.27;10.38;;;24.00;99.90;;;;;;5046523;28;20207;-68
2022/08/19 05:48:45;;;;;;;11.05;10.10;;;24.00;99.90;;;;;;5047262;28;20216;-68
2022/08/19 05:51:12;;;;;;;10.75;9.85;;;24.10;99.90;;;;;;5044793;28;20208;-68
2022/08/19 05:53:39;;;;;;;12.07;10.98;;;24.10;99.90;;;;;;5046511;28;20193;-68
2022/08/19 05:56:07;;;;;;;12.27;10.95;;;24.10;99.90;;;;;;5040536;28;20227;-68
2022/08/19 05:58:34;;;;;;;11.32;10.43;;;24.10;99.90;;;;;;5042812;28;20659;-69
2022/08/19 06:01:05;;;;;;;11.68;10.63;;;24.10;99.90;;;;;;5044934;28;20210;-69
2022/08/19 06:03:34;;;;;;;12.38;11.18;;;24.10;99.90;;;;;;5040567;28;20207;-68
2022/08/19 06:06:02;;;;;;;11.60;10.63;;;24.00;99.90;;;;;;5045373;28;20650;-69
2022/08/19 06:08:31;;;;;;;11.77;10.57;;;23.90;99.90;;;;;;5045668;28;20200;-68
2022/08/19 06:10:58;;;;;;;15.07;10.77;;;23.80;99.90;;;;;;5045623;28;20295;-68
2022/08/19 06:13:25;;;;;;;11.95;11.00;;;23.90;99.90;;;;;;5043076;28;20214;-68
2022/08/19 06:15:52;;;;;;;12.40;11.30;;;24.00;99.90;;;;;;5045150;28;20702;-68
2022/08/19 06:18:19;;;;;;;11.82;10.77;;;24.00;99.90;;;;;;5045857;28;20200;-68
2022/08/19 06:20:48;;;;;;;12.13;10.93;;;24.00;99.90;;;;;;5045411;28;20208;-68
2022/08/19 06:23:16;;;;;;;11.32;10.25;;;24.00;99.90;;;;;;5047226;28;20293;-68
2022/08/19 06:25:43;;;;;;;12.23;10.95;;;24.10;99.90;;;;;;5050218;28;20224;-68
2022/08/19 06:28:10;;;;;;;12.05;11.05;;;24.10;99.90;;;;;;5049674;28;20567;-68
2022/08/19 06:30:37;;;;;;;11.93;10.93;;;24.20;99.90;;;;;;5049570;28;20211;-68
2022/08/19 06:33:04;;;;;;;12.70;11.68;;;24.20;99.90;;;;;;5050258;28;20235;-68
2022/08/19 06:35:31;;;;;;;12.05;10.85;;;24.20;99.90;;;;;;5049712;28;20363;-69
2022/08/19 06:37:59;;;;;;;11.27;10.25;;;24.20;99.90;;;;;;5049157;28;20663;-69
2022/08/19 06:40:27;;;;;;;11.52;10.52;;;24.20;99.90;;;;;;5048720;28;20227;-69
2022/08/19 06:42:55;;;;;;;12.40;11.30;;;24.20;99.90;;;;;;5049513;28;20269;-69
2022/08/19 06:45:22;;;;;;;11.43;10.43;;;24.20;99.90;;;;;;5049005;28;20292;-69
2022/08/19 06:47:49;;;;;;;11.18;10.38;;;24.10;99.90;;;;;;5047568;28;20208;-69
2022/08/19 06:50:16;;;;;;;11.60;10.60;;;24.20;99.90;;;;;;5049417;28;20827;-69
2022/08/19 06:52:43;;;;;;;11.68;10.68;;;24.10;99.90;;;;;;5049506;28;20240;-69
2022/08/19 06:55:11;;;;;;;12.68;10.63;;;24.10;99.90;;;;;;5049259;28;20218;-68
2022/08/19 06:57:38;;;;;;;11.82;10.90;;;24.20;99.90;;;;;;5049355;28;20205;-69
2022/08/19 07:00:10;;;;;;;10.88;10.07;;;24.20;99.90;;;;;;5046870;28;20579;-69
2022/08/19 07:02:37;;;;;;;11.13;10.38;;;24.10;99.90;;;;;;5049337;28;20690;-68
2022/08/19 07:05:05;;;;;;;11.60;10.70;;;24.20;99.90;;;;;;5049440;28;20583;-67
2022/08/19 07:07:32;;;;;;;11.85;10.93;;;24.20;99.90;;;;;;5042898;28;20208;-67
2022/08/19 07:09:59;;;;;;;12.95;11.82;;;24.20;99.90;;;;;;5048696;28;20204;-68
2022/08/19 07:12:28;;;;;;;12.00;11.02;;;24.20;99.90;;;;;;5049097;28;20214;-68
2022/08/19 07:14:55;;;;;;;11.68;10.68;;;24.30;99.90;;;;;;5049299;28;20219;-68
2022/08/19 07:17:22;;;;;;;12.43;11.48;;;24.30;99.90;;;;;;5048668;28;20196;-68
2022/08/19 07:19:50;;;;;;;12.68;11.52;;;24.20;99.90;;;;;;5039168;28;20269;-68
2022/08/19 07:22:17;;;;;;;12.25;11.35;;;24.30;99.90;;;;;;5049081;28;20224;-68
2022/08/19 07:24:44;;;;;;;12.93;11.77;;;24.30;99.90;;;;;;5044453;28;20200;-68
2022/08/19 07:27:11;;;;;;;12.57;11.45;;;24.30;99.90;;;;;;5049437;28;20291;-69
2022/08/19 07:29:39;;;;;;;13.13;11.95;;;24.30;99.90;;;;;;5048753;28;20210;-68
2022/08/19 07:32:08;;;;;;;13.15;11.95;;;24.30;99.90;;;;;;5049101;28;20694;-68
2022/08/19 07:34:37;;;;;;;13.10;11.82;;;24.30;99.90;;;;;;5048096;28;20247;-68
2022/08/19 07:37:04;;;;;;;13.38;12.25;;;24.30;99.90;;;;;;5048879;28;20231;-68
2022/08/19 07:39:34;;;;;;;12.00;11.20;;;24.30;99.90;;;;;;5047915;28;20303;-68
2022/08/19 07:42:06;;;;;;;12.40;11.48;;;24.20;99.90;;;;;;5047904;28;20240;-68
2022/08/19 07:44:33;;;;;;;12.07;11.27;;;24.30;99.90;;;;;;5048713;28;20252;-68
2022/08/19 07:47:02;;;;;;;13.35;11.90;;;24.30;99.90;;;;;;5046918;28;20288;-68
2022/08/19 07:49:29;;;;;;;14.20;12.85;;;24.20;99.90;;;;;;5047234;28;20201;-68
2022/08/19 07:52:00;;;;;;;13.50;12.32;;;24.20;99.90;;;;;;5048683;28;20200;-68
2022/08/19 07:54:30;;;;;;;13.60;12.40;;;24.30;99.90;;;;;;5047997;28;20208;-69
2022/08/19 07:56:58;;;;;;;13.60;12.30;;;24.30;99.90;;;;;;5046698;28;20204;-68
2022/08/19 07:59:25;;;;;;;13.23;12.20;;;24.30;99.90;;;;;;5048540;28;20214;-69
2022/08/19 08:01:52;;;;;;;12.45;11.60;;;24.30;99.90;;;;;;5047799;28;20211;-68
2022/08/19 08:09:51;;;;;;;14.88;13.77;;;24.30;99.90;;;;;;5042217;28;20255;-68
2022/08/19 08:12:24;;;;;;;13.57;12.32;;;24.30;99.90;;;;;;5047903;28;20226;-68
2022/08/19 08:14:54;;;;;;;13.68;12.57;;;24.40;99.90;;;;;;5048326;28;20213;-68
2022/08/19 08:17:23;;;;;;;13.15;12.07;;;24.40;99.90;;;;;;5047678;28;20216;-68
2022/08/19 08:19:54;;;;;;;13.00;12.10;;;24.40;99.90;;;;;;5047702;28;20567;-68
2022/08/19 08:25:10;;;;;;;14.32;12.95;;;24.40;99.90;;;;;;5047270;28;20215;-68
2022/08/19 08:27:39;;;;;;;13.00;12.00;;;24.30;99.90;;;;;;5047038;28;20306;-68
2022/08/19 08:30:09;;;;;;;13.15;12.05;;;24.30;99.90;;;;;;5047881;28;20234;-68
2022/08/19 08:32:36;;;;;;;13.63;12.50;;;24.20;99.90;;;;;;5048856;28;20215;-68
2022/08/19 08:35:05;;;;;;;13.38;12.07;;;24.20;99.90;;;;;;5048641;28;20220;-68
2022/08/19 08:37:32;;;;;;;13.52;12.27;;;24.20;99.90;;;;;;5048492;28;20259;-69
2022/08/19 08:39:59;;;;;;;13.50;12.50;;;24.20;99.90;;;;;;5048248;28;20218;-69
2022/08/19 08:42:33;;;;;;;12.57;11.68;;;24.10;99.90;;;;;;5048562;28;20246;-69
2022/08/19 08:45:06;;;;;;;13.43;12.32;;;24.10;99.90;;;;;;5048248;28;20215;-69
2022/08/19 08:47:38;;;;;;;12.48;11.52;;;24.10;99.90;;;;;;5046057;28;20220;-67
2022/08/19 08:50:14;;;;;;;14.30;12.77;;;24.10;99.90;;;;;;5047812;28;20201;-67
2022/08/19 08:52:46;;;;;;;13.25;12.25;;;24.10;99.90;;;;;;5047712;28;20286;-67
2022/08/19 08:55:19;;;;;;;13.55;12.35;;;24.10;99.90;;;;;;5047321;28;20196;-67
2022/08/19 08:57:54;;;;;;;13.57;12.48;;;24.10;99.90;;;;;;5043802;28;20678;-68
2022/08/19 09:00:26;;;;;;;13.55;12.55;;;24.20;99.90;;;;;;5047292;28;20231;-68
2022/08/19 09:02:53;;;;;;;13.68;12.68;;;24.10;99.90;;;;;;5047461;28;20714;-67
2022/08/19 09:05:23;;;;;;;14.32;13.13;;;24.10;99.90;;;;;;5047167;28;20200;-67
2022/08/19 09:07:58;;;;;;;13.45;12.45;;;24.10;99.90;;;;;;5047575;28;20211;-67
2022/08/19 09:10:31;;;;;;;13.25;12.32;;;24.10;99.90;;;;;;5047127;28;20290;-68
2022/08/19 09:13:08;;;;;;;13.85;12.93;;;24.10;99.90;;;;;;5047563;28;20548;-67
2022/08/19 09:15:41;;;;;;;12.98;11.93;;;24.20;99.90;;;;;;5047050;28;20211;-69
2022/08/19 09:18:09;;;;;;;12.60;11.70;;;24.20;99.90;;;;;;5044691;28;20197;-69
2022/08/19 09:20:38;;;;;;;13.48;12.38;;;24.20;99.90;;;;;;5046850;28;20252;-69
2022/08/19 09:23:05;;;;;;;12.65;11.73;;;24.10;99.90;;;;;;5047178;28;20250;-70
2022/08/19 09:25:34;;;;;;;10.50;9.80;;;24.10;99.90;;;;;;5045246;28;20204;-71
2022/08/19 09:28:03;;;;;;;12.68;11.52;;;24.10;99.90;;;;;;5047240;28;20211;-70
2022/08/19 09:30:32;;;;;;;13.32;12.02;;;24.20;99.90;;;;;;5043477;28;20764;-70
2022/08/19 09:32:59;;;;;;;13.32;12.23;;;24.30;99.90;;;;;;5046460;28;20688;-70
2022/08/19 09:35:29;;;;;;;12.52;11.52;;;24.30;99.90;;;;;;5046386;28;20215;-70
2022/08/19 09:37:58;;;;;;;13.32;12.20;;;24.40;99.90;;;;;;5039150;28;20205;-70
2022/08/19 09:40:27;;;;;;;12.75;11.85;;;24.40;99.90;;;;;;5045643;28;20232;-70
2022/08/19 09:42:54;;;;;;;13.02;11.95;;;24.40;99.90;;;;;;5046972;28;20749;-70
2022/08/19 09:45:22;;;;;;;11.93;11.00;;;24.40;99.90;;;;;;5043993;28;20215;-70
2022/08/19 09:47:50;;;;;;;13.40;12.30;;;24.40;99.90;;;;;;5046503;28;20681;-70
2022/08/19 09:50:18;;;;;;;13.93;12.85;;;24.40;99.90;;;;;;5040372;28;20197;-70
2022/08/19 09:52:46;;;;;;;12.27;11.20;;;24.30;99.90;;;;;;5046490;28;20212;-70
2022/08/19 09:55:15;;;;;;;11.93;11.13;;;24.30;99.90;;;;;;5042150;28;20200;-70
2022/08/19 09:57:42;;;;;;;12.63;11.68;;;24.30;99.90;;;;;;5043526;28;20722;-71
2022/08/19 10:00:10;;;;;;;12.73;11.63;;;24.30;99.90;;;;;;5040456;28;20210;-71
2022/08/19 10:02:37;;;;;;;13.20;12.10;;;24.40;99.90;;;;;;5045745;28;20196;-70
2022/08/19 10:07:51;;;;;;;12.25;11.35;;;24.40;99.90;;;;;;5044228;28;20204;-70
2022/08/19 10:10:19;;;;;;;12.88;11.77;;;24.50;99.90;;;;;;5045875;28;20704;-71
2022/08/19 10:12:47;;;;;;;12.40;11.50;;;24.50;99.90;;;;;;5045941;28;20204;-70
2022/08/19 10:15:14;;;;;;;12.45;11.45;;;24.50;99.90;;;;;;5046179;28;20238;-71
2022/08/19 10:17:41;;;;;;;13.27;12.18;;;24.50;99.90;;;;;;5046473;28;20208;-70
2022/08/19 10:20:09;;;;;;;13.23;12.02;;;24.50;99.90;;;;;;5046642;28;20204;-70
2022/08/19 10:22:37;;;;;;;12.95;12.05;;;24.50;99.90;;;;;;5046146;28;20208;-70
2022/08/19 10:25:05;;;;;;;13.73;12.73;;;24.50;99.90;;;;;;5037924;28;20211;-71
2022/08/19 10:27:33;;;;;;;13.25;12.25;;;24.40;99.90;;;;;;5046132;28;20204;-71
2022/08/19 10:30:01;;;;;;;12.60;11.60;;;24.40;99.90;;;;;;5046474;28;20206;-70
2022/08/19 10:32:29;;;;;;;12.85;11.82;;;24.50;99.90;;;;;;5046777;28;20219;-70
2022/08/19 10:34:56;;;;;;;13.50;12.27;;;24.50;99.90;;;;;;5046370;28;20287;-70
2022/08/19 10:37:23;;;;;;;13.60;12.40;;;24.60;99.90;;;;;;5046735;28;20234;-70
2022/08/19 10:39:50;;;;;;;13.95;12.00;;;24.60;99.90;;;;;;5046646;28;20207;-70
2022/08/19 10:42:18;;;;;;;12.93;12.02;;;24.60;99.90;;;;;;5046529;28;20236;-70
2022/08/19 10:44:47;;;;;;;12.38;11.27;;;24.60;99.90;;;;;;5046889;28;20228;-70
2022/08/19 10:47:15;;;;;;;12.75;11.75;;;24.70;99.90;;;;;;5046087;28;20291;-70
2022/08/19 10:52:34;;;;;;;12.77;11.60;;;24.70;99.90;;;;;;5043728;28;20283;-69
2022/08/19 10:57:45;;;;;;;12.93;11.85;;;24.80;99.90;;;;;;5044606;28;20199;-70
2022/08/19 11:00:14;;;;;;;12.57;11.68;;;24.70;99.90;;;;;;5038232;28;20211;-70
2022/08/19 11:02:42;;;;;;;12.02;11.13;;;24.70;99.90;;;;;;5046065;28;20210;-70
2022/08/19 11:05:10;;;;;;;11.90;11.00;;;24.60;99.90;;;;;;5044919;28;20211;-71
2022/08/19 11:07:38;;;;;;;11.30;10.35;;;24.60;99.90;;;;;;5042979;28;20746;-70
2022/08/19 11:10:06;;;;;;;12.15;11.25;;;24.60;99.90;;;;;;5046441;28;20731;-70
2022/08/19 11:12:33;;;;;;;11.82;10.88;;;24.60;99.90;;;;;;5049623;28;20207;-70
2022/08/19 11:15:01;;;;;;;11.38;10.57;;;24.60;99.90;;;;;;5049380;28;20212;-70
2022/08/19 11:17:31;;;;;;;10.93;10.13;;;24.50;99.90;;;;;;5049072;28;20197;-70
2022/08/19 11:19:58;;;;;;;11.50;10.60;;;24.60;99.90;;;;;;5049694;28;20202;-70
2022/08/19 11:22:25;;;;;;;11.15;10.23;;;24.60;99.90;;;;;;5049667;28;20286;-70
2022/08/19 11:24:52;;;;;;;11.18;10.38;;;24.60;99.90;;;;;;5049934;28;20585;-70
2022/08/19 11:27:19;;;;;;;11.00;10.10;;;24.60;99.90;;;;;;5050119;28;20302;-70
2022/08/19 11:29:46;;;;;;;10.43;9.63;;;24.60;99.90;;;;;;5050240;28;20208;-70
2022/08/19 11:32:13;;;;;;;9.65;8.85;;;24.60;99.90;;;;;;5050012;28;20212;-70
2022/08/19 11:34:41;;;;;;;9.25;8.68;;;24.60;99.90;;;;;;5048473;28;20619;-70
2022/08/19 11:37:08;;;;;;;9.80;8.98;;;24.60;99.90;;;;;;5048899;28;20220;-70
2022/08/19 11:39:37;;;;;;;10.35;9.55;;;24.50;99.90;;;;;;5048760;28;20215;-70
2022/08/19 11:42:54;;;;;;;10.27;9.57;;;24.60;99.90;;;;;;5049109;28;20239;-70
2022/08/19 11:44:53;;;;;;;9.38;8.77;;;24.60;99.90;;;;;;5046213;28;20674;-70
2022/08/19 11:47:21;;;;;;;9.52;8.82;;;24.60;99.90;;;;;;5048471;28;20292;-71
2022/08/19 11:49:49;;;;;;;8.73;8.25;;;24.60;99.90;;;;;;5040845;28;20200;-70
2022/08/19 11:52:16;;;;;;;9.43;8.70;;;24.60;99.90;;;;;;5048730;28;20196;-71
2022/08/19 11:54:42;;;;;;;9.00;8.40;;;24.60;99.90;;;;;;5048673;28;20296;-71
2022/08/19 11:57:09;;;;;;;9.02;8.43;;;24.60;99.90;;;;;;5049090;28;20233;-71
2022/08/19 11:59:36;;;;;;;8.57;8.07;;;24.60;99.90;;;;;;5048671;28;20215;-71
2022/08/19 12:02:03;;;;;;;8.95;8.35;;;24.60;99.90;;;;;;5048512;28;20215;-71
2022/08/19 12:04:30;;;;;;;8.77;7.97;;;24.60;99.90;;;;;;5039860;28;20228;-71
2022/08/19 12:06:58;;;;;;;8.88;8.27;;;24.60;99.90;;;;;;5036890;28;20208;-71
2022/08/19 12:09:25;;;;;;;9.05;8.45;;;24.50;99.90;;;;;;5043368;28;20220;-71
2022/08/19 12:11:51;;;;;;;7.95;7.45;;;24.50;99.90;;;;;;5048995;28;20196;-71
2022/08/19 12:14:18;;;;;;;9.32;8.70;;;24.50;99.90;;;;;;5048572;28;20200;-71
2022/08/19 12:16:46;;;;;;;8.75;8.15;;;24.50;99.90;;;;;;5047988;28;20215;-71
2022/08/19 12:19:13;;;;;;;8.48;7.78;;;24.50;99.90;;;;;;5048167;28;20208;-71
2022/08/19 12:21:40;;;;;;;8.88;8.27;;;24.50;99.90;;;;;;5048155;28;20196;-71
2022/08/19 12:24:08;;;;;;;8.70;8.10;;;24.50;99.90;;;;;;5048226;28;20650;-71
2022/08/19 12:26:36;;;;;;;8.23;7.65;;;24.50;99.90;;;;;;5048326;28;20744;-71
2022/08/19 12:29:03;;;;;;;8.18;7.55;;;24.50;99.90;;;;;;5048117;28;20650;-71
2022/08/19 12:31:30;;;;;;;7.80;7.30;;;24.50;99.90;;;;;;5045149;28;20229;-71
2022/08/19 12:33:58;;;;;;;8.30;7.80;;;24.50;99.90;;;;;;5048123;28;20591;-71
2022/08/19 12:36:25;;;;;;;7.82;7.32;;;24.50;99.90;;;;;;5047837;28;21605;-71
2022/08/19 12:38:52;;;;;;;8.02;7.43;;;24.60;99.90;;;;;;5045834;28;20203;-75
2022/08/19 12:41:21;;;;;;;7.53;7.03;;;24.60;99.90;;;;;;5047459;28;20260;-70
2022/08/19 12:43:49;;;;;;;7.20;6.60;;;24.60;99.90;;;;;;5047947;28;20232;-71
2022/08/19 12:46:16;;;;;;;7.82;7.30;;;24.60;99.90;;;;;;5047656;28;20203;-71
2022/08/19 12:48:44;;;;;;;8.32;7.60;;;24.60;99.90;;;;;;5047690;28;20529;-70
2022/08/19 12:51:14;;;;;;;8.10;7.55;;;24.60;99.90;;;;;;5045190;28;20200;-70
2022/08/19 12:53:41;;;;;;;8.20;7.60;;;24.60;99.90;;;;;;5047794;28;20275;-70
2022/08/19 12:56:10;;;;;;;8.32;7.65;;;24.60;99.90;;;;;;5038958;28;20204;-70
2022/08/19 12:58:41;;;;;;;7.65;7.15;;;24.60;99.90;;;;;;5046093;28;20285;-70
2022/08/19 13:01:10;;;;;;;8.18;7.68;;;24.60;99.90;;;;;;5047493;28;20211;-70
2022/08/19 13:03:37;;;;;;;9.63;8.63;;;24.60;99.90;;;;;;5047483;28;20258;-70